Time;durP1;ratioP1;P1;durP2;ratioP2;P2;SDS_P1;SDS_P2;PMS_P1;PMS_P2;Temp;Humidity;BMP_temperature;BMP_pressure;BME280_temperature;BME280_humidity;BME280_pressure;Samples;Min_cycle;Max_cycle;Signal;HPM_P1;HPM_P2
2021/12/09 00:01:23;;;;;;;23.80;19.53;;;2.60;99.90;;;;;;5054409;28;20175;-84
2021/12/09 00:03:51;;;;;;;26.53;19.90;;;2.70;99.90;;;;;;5053975;28;20174;-84
2021/12/09 00:06:21;;;;;;;25.60;20.10;;;2.80;99.90;;;;;;5054669;28;20221;-84
2021/12/09 00:08:47;;;;;;;24.43;18.77;;;2.70;99.90;;;;;;5053552;28;20174;-84
2021/12/09 00:11:13;;;;;;;24.70;19.37;;;2.70;99.90;;;;;;5053224;28;20189;-85
2021/12/09 00:13:39;;;;;;;22.87;18.13;;;2.60;99.90;;;;;;5053133;28;20265;-85
2021/12/09 00:16:05;;;;;;;26.80;20.13;;;2.50;99.90;;;;;;5054107;28;20266;-85
2021/12/09 00:18:31;;;;;;;22.63;18.47;;;2.60;99.90;;;;;;5053104;28;20647;-85
2021/12/09 00:20:57;;;;;;;24.13;18.40;;;2.60;99.90;;;;;;5054130;28;20262;-85
2021/12/09 00:23:22;;;;;;;24.57;19.03;;;2.60;99.90;;;;;;5053779;28;20218;-86
2021/12/09 00:25:48;;;;;;;22.87;18.67;;;2.60;99.90;;;;;;5053703;28;20201;-84
2021/12/09 00:28:13;;;;;;;23.57;17.90;;;2.70;99.90;;;;;;5053725;28;20185;-84
2021/12/09 00:30:39;;;;;;;24.20;18.50;;;2.60;99.90;;;;;;5053064;28;20185;-84
2021/12/09 00:33:06;;;;;;;23.90;18.07;;;2.60;99.90;;;;;;5052546;28;20178;-84
2021/12/09 00:35:42;;;;;;;24.07;17.43;;;2.70;99.90;;;;;;5053390;28;20198;-84
2021/12/09 00:38:12;;;;;;;24.57;18.50;;;2.80;99.90;;;;;;5052969;28;20236;-84
2021/12/09 00:40:38;;;;;;;22.63;18.30;;;2.80;99.90;;;;;;5052568;28;20580;-84
2021/12/09 00:43:04;;;;;;;28.63;20.33;;;2.80;99.90;;;;;;5052582;28;20178;-84
2021/12/09 00:45:30;;;;;;;22.80;18.63;;;2.80;99.90;;;;;;5052832;28;20205;-84
2021/12/09 00:47:56;;;;;;;22.73;17.30;;;2.90;99.90;;;;;;5052826;28;20289;-84
2021/12/09 00:50:23;;;;;;;22.87;17.17;;;2.90;99.90;;;;;;5053372;28;20224;-84
2021/12/09 00:52:49;;;;;;;22.00;17.20;;;2.90;99.90;;;;;;5052822;28;20621;-84
2021/12/09 00:55:17;;;;;;;23.00;17.77;;;2.90;99.90;;;;;;5052419;28;20178;-84
2021/12/09 00:57:43;;;;;;;22.13;18.10;;;2.90;99.90;;;;;;5052113;28;20686;-84
2021/12/09 01:00:18;;;;;;;22.00;17.57;;;2.90;99.90;;;;;;5052389;28;20170;-84
2021/12/09 01:02:44;;;;;;;23.47;17.63;;;2.90;99.90;;;;;;5052452;28;20628;-85
2021/12/09 01:05:11;;;;;;;24.47;17.93;;;2.90;99.90;;;;;;5052162;28;20169;-84
2021/12/09 01:07:38;;;;;;;23.77;18.13;;;2.90;99.90;;;;;;5052169;28;20182;-85
2021/12/09 01:10:08;;;;;;;25.80;18.63;;;2.90;99.90;;;;;;5052185;28;20174;-85
2021/12/09 01:12:33;;;;;;;25.83;19.00;;;2.90;99.90;;;;;;5052131;28;20212;-85
2021/12/09 01:14:59;;;;;;;23.90;18.57;;;2.80;99.90;;;;;;5052132;28;20178;-84
2021/12/09 01:17:25;;;;;;;26.53;19.80;;;2.70;99.90;;;;;;5052082;28;20208;-84
2021/12/09 01:19:52;;;;;;;26.77;19.87;;;2.60;99.90;;;;;;5052062;28;20224;-84
2021/12/09 01:22:19;;;;;;;25.90;19.33;;;2.50;99.90;;;;;;5052051;28;20270;-84
2021/12/09 01:24:45;;;;;;;28.33;20.60;;;2.50;99.90;;;;;;5052066;28;20691;-84
2021/12/09 01:27:12;;;;;;;27.50;20.67;;;2.50;99.90;;;;;;5051927;28;20219;-84
2021/12/09 01:29:41;;;;;;;27.33;20.73;;;2.60;99.90;;;;;;5053258;28;20257;-84
2021/12/09 01:32:10;;;;;;;25.53;19.03;;;2.60;99.90;;;;;;5052008;28;20182;-84
2021/12/09 01:34:37;;;;;;;26.60;19.83;;;2.60;99.90;;;;;;5052815;28;20186;-84
2021/12/09 01:37:05;;;;;;;25.37;19.07;;;2.60;99.90;;;;;;5054918;28;20232;-84
2021/12/09 01:39:31;;;;;;;24.80;19.47;;;2.70;99.90;;;;;;5057082;28;20170;-84
2021/12/09 01:41:58;;;;;;;25.27;19.83;;;2.60;99.90;;;;;;5056618;28;20633;-84
2021/12/09 01:44:24;;;;;;;29.23;20.40;;;2.50;99.90;;;;;;5056700;28;20185;-84
2021/12/09 01:46:50;;;;;;;29.90;20.13;;;2.40;99.90;;;;;;5057396;28;20677;-85
2021/12/09 01:49:17;;;;;;;28.27;21.07;;;2.20;99.90;;;;;;5060587;28;20208;-84
2021/12/09 01:51:45;;;;;;;27.73;20.33;;;2.30;99.90;;;;;;5061910;28;20182;-84
2021/12/09 01:54:12;;;;;;;26.97;19.60;;;2.30;99.90;;;;;;5062592;28;20178;-84
2021/12/09 01:56:38;;;;;;;28.60;20.67;;;2.40;99.90;;;;;;5058451;28;20217;-84
2021/12/09 01:59:05;;;;;;;27.50;19.77;;;2.50;99.90;;;;;;5058636;28;20186;-84
2021/12/09 02:01:32;;;;;;;25.13;19.60;;;2.60;99.90;;;;;;5057255;28;20265;-85
2021/12/09 02:03:59;;;;;;;24.67;19.47;;;2.70;99.90;;;;;;5056628;28;20182;-85
2021/12/09 02:06:26;;;;;;;24.93;20.13;;;2.50;99.90;;;;;;5055900;28;20212;-85
2021/12/09 02:08:52;;;;;;;27.13;19.90;;;2.50;99.90;;;;;;5057585;28;20182;-85
2021/12/09 02:11:18;;;;;;;27.87;20.47;;;2.50;99.90;;;;;;5058903;28;20205;-85
2021/12/09 02:13:44;;;;;;;26.03;19.67;;;2.50;99.90;;;;;;5058834;28;20185;-85
2021/12/09 02:16:10;;;;;;;28.03;20.10;;;2.50;99.90;;;;;;5059205;28;20206;-85
2021/12/09 02:18:36;;;;;;;25.33;19.23;;;2.60;99.90;;;;;;5059029;28;20244;-85
2021/12/09 02:21:03;;;;;;;28.53;20.63;;;2.60;99.90;;;;;;5058811;28;20249;-85
2021/12/09 02:23:29;;;;;;;28.23;20.53;;;2.60;99.90;;;;;;5057146;28;20197;-85
2021/12/09 02:25:54;;;;;;;30.00;21.23;;;2.50;99.90;;;;;;5059475;28;20197;-84
2021/12/09 02:28:20;;;;;;;30.23;21.23;;;2.50;99.90;;;;;;5057798;28;20193;-84
2021/12/09 02:30:46;;;;;;;30.13;21.33;;;2.40;99.90;;;;;;5056867;28;20182;-83
2021/12/09 02:33:11;;;;;;;28.73;20.87;;;2.50;99.90;;;;;;5057692;28;20217;-83
2021/12/09 02:35:38;;;;;;;29.87;22.13;;;2.40;99.90;;;;;;5057308;28;20202;-83
2021/12/09 02:38:05;;;;;;;30.13;21.50;;;2.40;99.90;;;;;;5058012;28;20174;-85
2021/12/09 02:40:41;;;;;;;30.97;22.03;;;2.50;99.90;;;;;;5059265;28;20253;-85
2021/12/09 02:43:08;;;;;;;30.47;21.60;;;2.50;99.90;;;;;;5057919;28;20166;-85
2021/12/09 02:45:38;;;;;;;28.93;21.13;;;2.50;99.90;;;;;;5057423;28;20194;-85
2021/12/09 02:48:04;;;;;;;25.83;19.57;;;2.70;99.90;;;;;;5058420;28;20190;-85
2021/12/09 02:50:30;;;;;;;27.00;19.97;;;2.70;99.90;;;;;;5055143;28;20643;-85
2021/12/09 02:52:56;;;;;;;24.50;19.77;;;2.80;99.90;;;;;;5054795;28;20664;-85
2021/12/09 02:55:21;;;;;;;30.40;21.93;;;2.80;99.90;;;;;;5054908;28;20185;-85
2021/12/09 02:57:51;;;;;;;32.23;22.17;;;2.80;99.90;;;;;;5053907;28;20213;-85
2021/12/09 03:00:17;;;;;;;29.73;21.13;;;2.70;99.90;;;;;;5055122;28;20185;-85
2021/12/09 03:02:44;;;;;;;27.27;20.23;;;2.70;99.90;;;;;;5054641;28;20179;-85
2021/12/09 03:05:10;;;;;;;30.83;21.43;;;2.70;99.90;;;;;;5055194;28;20259;-84
2021/12/09 03:07:39;;;;;;;26.37;19.63;;;2.70;99.90;;;;;;5056286;28;20186;-84
2021/12/09 03:10:20;;;;;;;28.47;20.07;;;2.70;99.90;;;;;;5055489;28;20178;-84
2021/12/09 03:12:51;;;;;;;27.23;19.67;;;2.80;99.90;;;;;;5056781;28;20182;-84
2021/12/09 03:15:17;;;;;;;30.40;20.37;;;2.80;99.90;;;;;;5056623;28;20174;-84
2021/12/09 03:17:44;;;;;;;28.37;19.60;;;2.90;99.90;;;;;;5055533;28;20205;-84
2021/12/09 03:20:11;;;;;;;26.10;18.83;;;2.70;99.90;;;;;;5055649;28;20260;-84
2021/12/09 03:22:39;;;;;;;27.20;19.83;;;2.60;99.90;;;;;;5056928;28;20208;-84
2021/12/09 03:25:08;;;;;;;30.30;20.53;;;2.50;99.90;;;;;;5056520;28;20186;-84
2021/12/09 03:27:33;;;;;;;28.90;20.20;;;2.40;99.90;;;;;;5055481;28;20706;-84
2021/12/09 03:29:59;;;;;;;26.17;19.93;;;2.40;99.90;;;;;;5056612;28;20178;-84
2021/12/09 03:32:25;;;;;;;29.07;20.87;;;2.50;99.90;;;;;;5057635;28;20178;-84
2021/12/09 03:34:51;;;;;;;26.03;19.90;;;2.60;99.90;;;;;;5055749;28;20179;-85
2021/12/09 03:37:20;;;;;;;27.60;20.20;;;2.50;99.90;;;;;;5056135;28;20210;-85
2021/12/09 03:39:47;;;;;;;29.53;21.70;;;2.50;99.90;;;;;;5056808;28;20177;-85
2021/12/09 03:42:15;;;;;;;32.63;23.47;;;2.50;99.90;;;;;;5054061;28;20205;-85
2021/12/09 03:44:43;;;;;;;31.23;22.70;;;2.60;99.90;;;;;;5055584;28;20178;-85
2021/12/09 03:47:12;;;;;;;33.33;23.97;;;2.60;99.90;;;;;;5055287;28;20344;-85
2021/12/09 03:49:37;;;;;;;31.37;22.07;;;2.60;99.90;;;;;;5056635;28;20216;-85
2021/12/09 03:52:04;;;;;;;33.77;23.57;;;2.50;99.90;;;;;;5055849;28;20178;-85
2021/12/09 03:54:30;;;;;;;29.27;22.30;;;2.50;99.90;;;;;;5055359;28;20181;-85
2021/12/09 03:56:56;;;;;;;33.27;24.00;;;2.50;99.90;;;;;;5055219;28;20217;-85
2021/12/09 03:59:21;;;;;;;36.07;24.17;;;2.60;99.90;;;;;;5056832;28;20216;-85
2021/12/09 04:01:47;;;;;;;34.43;24.20;;;2.60;99.90;;;;;;5056345;28;20653;-85
2021/12/09 04:04:14;;;;;;;34.10;24.23;;;2.60;99.90;;;;;;5056055;28;20197;-84
2021/12/09 04:06:40;;;;;;;36.10;24.87;;;2.70;99.90;;;;;;5056490;28;20198;-84
2021/12/09 04:09:10;;;;;;;36.27;24.23;;;2.70;99.90;;;;;;5055813;28;20178;-84
2021/12/09 04:11:36;;;;;;;33.77;24.10;;;2.70;99.90;;;;;;5056973;28;20193;-84
2021/12/09 04:14:03;;;;;;;33.90;23.33;;;2.60;99.90;;;;;;5055445;28;20220;-84
2021/12/09 04:16:29;;;;;;;33.77;24.80;;;2.60;99.90;;;;;;5055419;28;20277;-84
2021/12/09 04:18:54;;;;;;;34.23;24.33;;;2.50;99.90;;;;;;5055741;28;20209;-84
2021/12/09 04:21:20;;;;;;;37.33;24.80;;;2.60;99.90;;;;;;5057556;28;20311;-84
2021/12/09 04:23:46;;;;;;;34.47;23.47;;;2.70;99.90;;;;;;5056707;28;20210;-84
2021/12/09 04:26:12;;;;;;;33.80;23.57;;;2.70;99.90;;;;;;5055298;28;20206;-84
2021/12/09 04:28:40;;;;;;;34.17;23.97;;;2.50;99.90;;;;;;5054734;28;20185;-84
2021/12/09 04:31:05;;;;;;;36.77;23.43;;;2.50;99.90;;;;;;5055113;28;20178;-84
2021/12/09 04:33:31;;;;;;;34.43;23.53;;;2.60;99.90;;;;;;5053972;28;20229;-84
2021/12/09 04:35:58;;;;;;;38.23;24.33;;;2.60;99.90;;;;;;5054329;28;20576;-84
2021/12/09 04:38:25;;;;;;;35.77;24.73;;;2.50;99.90;;;;;;5053066;28;20174;-85
2021/12/09 04:40:51;;;;;;;38.03;24.73;;;2.50;99.90;;;;;;5052994;28;20181;-85
2021/12/09 04:43:17;;;;;;;37.93;24.90;;;2.50;99.90;;;;;;5053305;28;20202;-85
2021/12/09 04:45:43;;;;;;;36.23;24.90;;;2.50;99.90;;;;;;5052524;28;20198;-85
2021/12/09 04:48:09;;;;;;;36.67;23.60;;;2.60;99.90;;;;;;5053418;28;20241;-85
2021/12/09 04:50:37;;;;;;;35.93;24.37;;;2.60;99.90;;;;;;5053417;28;20205;-84
2021/12/09 04:53:04;;;;;;;35.97;24.13;;;2.60;99.90;;;;;;5053033;28;20205;-84
2021/12/09 04:55:30;;;;;;;36.57;24.63;;;2.60;99.90;;;;;;5052877;28;20182;-84
2021/12/09 04:57:56;;;;;;;37.50;24.13;;;2.60;99.90;;;;;;5052956;28;20198;-84
2021/12/09 05:00:24;;;;;;;35.10;23.17;;;2.50;99.90;;;;;;5053054;28;20193;-84
2021/12/09 05:05:25;;;;;;;33.57;23.33;;;2.50;99.90;;;;;;5054718;28;20162;-84
2021/12/09 05:07:50;;;;;;;33.17;22.90;;;2.50;99.90;;;;;;5052762;28;20216;-84
2021/12/09 05:10:16;;;;;;;36.33;24.23;;;2.50;99.90;;;;;;5052722;28;20386;-84
2021/12/09 05:12:42;;;;;;;33.90;23.27;;;2.50;99.90;;;;;;5052528;28;20209;-84
2021/12/09 05:15:09;;;;;;;33.40;22.80;;;2.50;99.90;;;;;;5052927;28;20259;-84
2021/12/09 05:17:35;;;;;;;32.63;23.10;;;2.50;99.90;;;;;;5052613;28;20217;-86
2021/12/09 05:20:03;;;;;;;37.90;23.27;;;2.30;99.90;;;;;;5052800;28;20181;-86
2021/12/09 05:22:29;;;;;;;34.00;23.27;;;2.10;99.90;;;;;;5052029;28;20181;-86
2021/12/09 05:24:56;;;;;;;34.87;23.77;;;2.30;99.90;;;;;;5052093;28;20182;-86
2021/12/09 05:27:22;;;;;;;35.33;22.97;;;2.40;99.90;;;;;;5051888;28;20248;-86
2021/12/09 05:30:03;;;;;;;37.70;24.00;;;2.20;99.90;;;;;;5052136;28;20214;-79
2021/12/09 05:32:28;;;;;;;39.30;24.93;;;2.30;99.90;;;;;;5053804;28;20267;-83
2021/12/09 05:35:06;;;;;;;37.00;23.17;;;2.40;99.90;;;;;;5053457;28;20182;-82
2021/12/09 05:37:32;;;;;;;37.83;23.83;;;2.30;99.90;;;;;;5053083;28;20214;-79
2021/12/09 05:39:59;;;;;;;37.47;22.97;;;2.40;99.90;;;;;;5053264;28;20236;-84
2021/12/09 05:42:25;;;;;;;38.37;24.93;;;2.20;99.90;;;;;;5052241;28;20253;-84
2021/12/09 05:44:53;;;;;;;38.40;23.77;;;2.20;99.90;;;;;;5052417;28;20178;-84
2021/12/09 05:47:18;;;;;;;37.63;23.67;;;2.10;99.90;;;;;;5052623;28;20202;-84
2021/12/09 05:49:46;;;;;;;41.80;24.10;;;2.30;99.90;;;;;;5052113;28;20193;-84
2021/12/09 05:52:13;;;;;;;37.63;24.80;;;2.30;99.90;;;;;;5052282;28;20186;-85
2021/12/09 05:54:38;;;;;;;42.30;26.07;;;2.30;99.90;;;;;;5051191;28;20220;-86
2021/12/09 05:57:04;;;;;;;42.83;26.60;;;2.30;99.90;;;;;;5051807;28;20250;-85
2021/12/09 05:59:30;;;;;;;49.40;30.23;;;2.40;99.90;;;;;;5052120;28;20178;-85
2021/12/09 06:01:57;;;;;;;44.57;28.30;;;2.40;99.90;;;;;;5051837;28;20214;-85
2021/12/09 06:04:23;;;;;;;38.50;24.23;;;2.50;99.90;;;;;;5051696;28;20273;-85
2021/12/09 06:06:50;;;;;;;38.20;23.20;;;2.40;99.90;;;;;;5051982;28;20264;-85
2021/12/09 06:09:26;;;;;;;37.77;23.97;;;2.40;99.90;;;;;;5051664;28;20182;-85
2021/12/09 06:11:51;;;;;;;31.20;20.50;;;2.40;99.90;;;;;;5051763;28;20178;-86
2021/12/09 06:14:17;;;;;;;30.93;21.07;;;2.40;99.90;;;;;;5051542;28;20193;-85
2021/12/09 06:16:43;;;;;;;31.13;21.43;;;2.40;99.90;;;;;;5052444;28;20210;-84
2021/12/09 06:19:09;;;;;;;35.93;22.77;;;2.40;99.90;;;;;;5051608;28;20174;-84
2021/12/09 06:21:34;;;;;;;33.33;22.13;;;2.40;99.90;;;;;;5051574;28;20228;-85
2021/12/09 06:24:01;;;;;;;35.90;23.03;;;2.40;99.90;;;;;;5051542;28;20182;-85
2021/12/09 06:26:27;;;;;;;39.80;24.13;;;2.50;99.90;;;;;;5051968;28;20252;-84
2021/12/09 06:28:53;;;;;;;34.27;22.63;;;2.40;99.90;;;;;;5051538;28;20269;-84
2021/12/09 06:31:20;;;;;;;34.77;22.57;;;2.30;99.90;;;;;;5051904;28;20205;-84
2021/12/09 06:33:46;;;;;;;37.53;23.27;;;2.30;99.90;;;;;;5055840;28;20182;-83
2021/12/09 06:36:18;;;;;;;35.07;23.53;;;2.40;99.90;;;;;;5054801;28;20209;-84
2021/12/09 06:38:59;;;;;;;36.47;22.57;;;2.50;99.90;;;;;;5055060;28;20185;-85
2021/12/09 06:41:26;;;;;;;34.87;21.83;;;2.60;99.90;;;;;;5054872;28;20201;-86
2021/12/09 06:43:51;;;;;;;38.30;23.27;;;2.60;99.90;;;;;;5055070;28;20178;-86
2021/12/09 06:46:17;;;;;;;34.03;22.73;;;2.60;99.90;;;;;;5054616;28;20213;-86
2021/12/09 06:48:42;;;;;;;36.63;23.17;;;2.60;99.90;;;;;;5054697;28;20553;-86
2021/12/09 06:51:08;;;;;;;39.10;23.90;;;2.60;99.90;;;;;;5054684;28;20182;-85
2021/12/09 06:53:35;;;;;;;36.07;22.17;;;2.60;99.90;;;;;;5054719;28;20201;-85
2021/12/09 06:56:02;;;;;;;37.77;23.10;;;2.60;99.90;;;;;;5054490;28;20214;-85
2021/12/09 06:58:28;;;;;;;31.93;19.73;;;2.50;99.90;;;;;;5054484;28;20272;-85
2021/12/09 07:00:55;;;;;;;30.97;19.97;;;2.50;99.90;;;;;;5054517;28;20178;-85
2021/12/09 07:03:22;;;;;;;28.77;19.53;;;2.40;99.90;;;;;;5055367;28;20178;-85
2021/12/09 07:05:52;;;;;;;33.03;20.33;;;2.30;99.90;;;;;;5054369;28;20202;-84
2021/12/09 07:08:22;;;;;;;36.60;22.33;;;2.30;99.90;;;;;;5054488;28;20182;-84
2021/12/09 07:10:50;;;;;;;34.73;21.37;;;2.20;99.90;;;;;;5055720;28;20190;-85
2021/12/09 07:13:16;;;;;;;36.27;20.70;;;2.00;99.90;;;;;;5054268;28;20186;-85
2021/12/09 07:15:41;;;;;;;33.87;20.00;;;1.90;99.90;;;;;;5054270;28;20230;-85
2021/12/09 07:18:43;;;;;;;35.53;21.83;;;1.90;99.90;;;;;;5054631;28;20229;-85
2021/12/09 07:21:09;;;;;;;41.00;22.73;;;1.80;99.90;;;;;;5054364;28;20182;-85
2021/12/09 07:23:34;;;;;;;36.30;21.77;;;1.90;99.90;;;;;;5055308;28;20178;-86
2021/12/09 07:26:00;;;;;;;36.10;21.77;;;1.90;99.90;;;;;;5055135;28;20224;-85
2021/12/09 07:28:25;;;;;;;36.20;22.50;;;1.90;99.90;;;;;;5054491;28;20182;-85
2021/12/09 07:30:51;;;;;;;36.70;22.53;;;2.00;99.90;;;;;;5054020;28;20178;-85
2021/12/09 07:33:18;;;;;;;33.13;21.57;;;2.10;99.90;;;;;;5054059;28;20182;-85
2021/12/09 07:35:44;;;;;;;35.07;22.67;;;2.10;99.90;;;;;;5054524;28;20202;-85
2021/12/09 07:38:10;;;;;;;32.20;21.53;;;2.20;99.90;;;;;;5054628;28;20672;-85
2021/12/09 07:40:36;;;;;;;34.63;22.57;;;2.20;99.90;;;;;;5053909;28;20661;-85
2021/12/09 07:43:03;;;;;;;31.70;22.00;;;2.40;99.90;;;;;;5053338;28;20178;-85
2021/12/09 07:45:29;;;;;;;36.93;23.30;;;2.30;99.90;;;;;;5053643;28;20189;-85
2021/12/09 07:47:55;;;;;;;35.93;25.43;;;2.40;99.90;;;;;;5053717;28;20225;-85
2021/12/09 07:50:24;;;;;;;37.83;24.67;;;2.40;99.90;;;;;;5053572;28;20186;-85
2021/12/09 07:52:51;;;;;;;32.67;22.70;;;2.40;99.90;;;;;;5053663;28;20186;-85
2021/12/09 07:55:20;;;;;;;33.13;22.07;;;2.50;99.90;;;;;;5054301;28;20186;-85
2021/12/09 07:57:46;;;;;;;32.53;22.93;;;2.50;99.90;;;;;;5054172;28;20224;-85
2021/12/09 08:00:16;;;;;;;31.97;21.90;;;2.50;99.90;;;;;;5053494;28;20178;-85
2021/12/09 08:02:43;;;;;;;30.43;19.57;;;2.60;99.90;;;;;;5053546;28;20277;-85
2021/12/09 08:05:10;;;;;;;28.90;19.37;;;2.60;99.90;;;;;;5053310;28;20182;-85
2021/12/09 08:07:37;;;;;;;28.73;19.10;;;2.70;99.90;;;;;;5053551;28;20229;-85
2021/12/09 08:10:04;;;;;;;43.77;25.63;;;2.80;99.90;;;;;;5054505;28;20220;-84
2021/12/09 08:12:30;;;;;;;38.33;23.90;;;2.90;99.90;;;;;;5053361;28;20182;-84
2021/12/09 08:14:57;;;;;;;44.63;27.13;;;3.00;99.90;;;;;;5053134;28;20225;-84
2021/12/09 08:17:44;;;;;;;52.57;25.03;;;3.10;99.90;;;;;;5054164;28;20250;-84
2021/12/09 08:20:14;;;;;;;30.17;20.33;;;3.00;99.90;;;;;;5054234;28;20189;-84
2021/12/09 08:22:41;;;;;;;29.23;18.30;;;3.10;99.90;;;;;;5053270;28;20171;-84
2021/12/09 08:25:08;;;;;;;32.30;20.00;;;3.10;99.90;;;;;;5053171;28;20181;-85
2021/12/09 08:27:36;;;;;;;29.53;19.70;;;2.90;99.90;;;;;;5053097;28;20216;-85
2021/12/09 08:30:05;;;;;;;29.13;19.23;;;3.00;99.90;;;;;;5052884;28;20190;-85
2021/12/09 08:32:32;;;;;;;26.73;17.27;;;3.10;99.90;;;;;;5053130;28;20211;-85
2021/12/09 08:34:58;;;;;;;25.80;16.97;;;3.20;99.90;;;;;;5052730;28;20267;-85
2021/12/09 08:37:24;;;;;;;27.13;17.13;;;3.20;99.90;;;;;;5052605;28;20260;-85
2021/12/09 08:39:50;;;;;;;24.70;16.80;;;3.30;99.90;;;;;;5053004;28;20261;-85
2021/12/09 08:42:16;;;;;;;28.03;18.20;;;3.40;99.90;;;;;;5053764;28;20178;-85
2021/12/09 08:44:42;;;;;;;28.27;17.63;;;3.30;99.90;;;;;;5052951;28;20214;-85
2021/12/09 08:47:07;;;;;;;30.30;17.47;;;3.20;99.90;;;;;;5053685;28;20197;-85
2021/12/09 08:49:33;;;;;;;28.93;18.23;;;3.10;99.90;;;;;;5052748;28;20196;-85
2021/12/09 08:51:59;;;;;;;30.37;17.70;;;3.00;99.90;;;;;;5052381;28;20174;-85
2021/12/09 08:54:25;;;;;;;30.20;18.43;;;3.10;99.90;;;;;;5053205;28;20243;-85
2021/12/09 08:56:51;;;;;;;25.67;16.83;;;3.20;99.90;;;;;;5053772;28;20288;-85
2021/12/09 08:59:18;;;;;;;25.23;16.43;;;3.10;99.90;;;;;;5052357;28;20225;-85
2021/12/09 09:01:44;;;;;;;28.57;17.07;;;3.10;99.90;;;;;;5053111;28;20220;-85
2021/12/09 09:04:10;;;;;;;24.97;15.50;;;3.10;99.90;;;;;;5053478;28;20178;-85
2021/12/09 09:06:36;;;;;;;25.37;15.70;;;3.10;99.90;;;;;;5052311;28;20233;-85
2021/12/09 09:09:04;;;;;;;27.20;16.30;;;3.20;99.90;;;;;;5053556;28;20170;-85
2021/12/09 09:11:30;;;;;;;27.63;16.83;;;3.30;99.90;;;;;;5053140;28;20179;-85
2021/12/09 09:13:57;;;;;;;32.50;20.43;;;3.40;99.90;;;;;;5052191;28;20734;-85
2021/12/09 09:16:23;;;;;;;44.23;22.10;;;3.60;99.90;;;;;;5053272;28;20233;-85
2021/12/09 09:18:53;;;;;;;41.63;18.37;;;3.50;99.90;;;;;;5052242;28;20178;-85
2021/12/09 09:21:19;;;;;;;30.07;18.17;;;2.90;99.90;;;;;;5052088;28;20174;-85
2021/12/09 09:23:44;;;;;;;31.33;17.80;;;2.90;99.90;;;;;;5052160;28;20174;-85
2021/12/09 09:26:10;;;;;;;31.03;17.93;;;3.00;99.90;;;;;;5052047;28;20244;-85
2021/12/09 09:28:36;;;;;;;29.47;17.40;;;3.10;99.90;;;;;;5052070;28;20228;-85
2021/12/09 09:31:04;;;;;;;29.73;17.50;;;3.10;99.90;;;;;;5051985;28;20646;-85
2021/12/09 09:33:31;;;;;;;30.23;17.63;;;3.40;99.90;;;;;;5052905;28;20185;-85
2021/12/09 09:35:57;;;;;;;31.07;17.20;;;3.70;99.90;;;;;;5053098;28;20277;-85
2021/12/09 09:38:27;;;;;;;29.53;16.70;;;3.90;99.90;;;;;;5052304;28;20185;-85
2021/12/09 09:41:10;;;;;;;25.97;15.87;;;4.10;99.90;;;;;;5051889;28;20228;-85
2021/12/09 09:46:14;;;;;;;23.40;14.87;;;4.40;99.90;;;;;;5053337;28;20195;-85
2021/12/09 09:48:40;;;;;;;25.97;16.73;;;4.20;99.90;;;;;;5053428;28;20177;-84
2021/12/09 09:51:09;;;;;;;24.90;16.17;;;4.20;99.90;;;;;;5052017;28;20182;-84
2021/12/09 09:53:36;;;;;;;27.20;16.90;;;4.20;99.90;;;;;;5055085;28;20229;-84
2021/12/09 09:56:08;;;;;;;26.07;16.77;;;4.00;99.90;;;;;;5055758;28;20224;-85
2021/12/09 09:58:34;;;;;;;23.97;16.90;;;4.10;99.90;;;;;;5054709;28;20217;-85
2021/12/09 10:01:00;;;;;;;26.37;16.20;;;4.20;99.90;;;;;;5054639;28;20636;-85
2021/12/09 10:03:30;;;;;;;25.37;16.70;;;4.10;99.90;;;;;;5054902;28;20194;-85
2021/12/09 10:06:02;;;;;;;26.23;17.70;;;4.20;99.90;;;;;;5058383;28;20271;-85
2021/12/09 10:08:30;;;;;;;29.00;17.80;;;4.30;99.90;;;;;;5061003;28;20536;-85
2021/12/09 10:10:56;;;;;;;28.07;16.77;;;4.30;99.90;;;;;;5060378;28;20179;-85
2021/12/09 10:13:31;;;;;;;27.90;17.73;;;4.20;99.90;;;;;;5060243;28;20183;-85
2021/12/09 10:15:57;;;;;;;26.70;16.37;;;4.40;99.90;;;;;;5060536;28;20204;-85
2021/12/09 10:18:39;;;;;;;25.73;17.23;;;4.50;99.90;;;;;;5059459;28;20178;-85
2021/12/09 10:21:08;;;;;;;23.90;15.83;;;4.50;99.90;;;;;;5059230;28;20170;-85
2021/12/09 10:23:35;;;;;;;23.37;14.80;;;4.40;99.90;;;;;;5058968;28;20185;-85
2021/12/09 10:26:26;;;;;;;23.43;15.40;;;4.50;99.90;;;;;;5059152;28;20272;-85
2021/12/09 10:29:10;;;;;;;22.33;14.37;;;4.40;99.90;;;;;;5059372;28;20178;-85
2021/12/09 10:31:46;;;;;;;20.43;14.70;;;4.40;99.90;;;;;;5059557;28;20182;-85
2021/12/09 10:34:36;;;;;;;23.13;14.40;;;4.30;99.90;;;;;;5060612;28;20150;-85
2021/12/09 10:37:24;;;;;;;22.43;14.60;;;4.20;99.90;;;;;;5058919;28;20210;-85
2021/12/09 10:39:56;;;;;;;22.87;14.33;;;4.20;99.90;;;;;;5058410;28;20163;-85
2021/12/09 10:42:26;;;;;;;25.07;15.77;;;4.20;99.90;;;;;;5058024;28;20174;-85
2021/12/09 10:44:56;;;;;;;19.70;14.63;;;4.10;99.90;;;;;;5057887;28;20174;-85
2021/12/09 10:47:52;;;;;;;21.10;14.73;;;4.10;99.90;;;;;;5058019;28;20685;-85
2021/12/09 10:50:28;;;;;;;22.73;15.27;;;4.20;99.90;;;;;;5058147;28;20197;-85
2021/12/09 10:53:18;;;;;;;21.30;14.37;;;4.40;99.90;;;;;;5058618;28;20174;-85
2021/12/09 10:55:46;;;;;;;24.00;14.27;;;4.40;99.90;;;;;;5057647;28;20202;-85
2021/12/09 10:58:13;;;;;;;18.63;13.47;;;4.60;99.90;;;;;;5057849;28;20205;-85
2021/12/09 11:00:44;;;;;;;22.53;14.57;;;4.70;99.90;;;;;;5058109;28;20178;-85
2021/12/09 11:03:14;;;;;;;20.87;14.00;;;4.80;99.90;;;;;;5058422;28;20170;-85
2021/12/09 11:05:50;;;;;;;23.03;13.60;;;5.00;99.90;;;;;;5057046;28;20202;-85
2021/12/09 11:08:18;;;;;;;18.50;12.93;;;5.00;99.90;;;;;;5057403;28;20226;-85
2021/12/09 11:10:47;;;;;;;19.43;13.93;;;4.90;99.90;;;;;;5057498;28;20649;-85
2021/12/09 11:13:20;;;;;;;30.50;20.73;;;4.90;99.90;;;;;;5058469;28;20265;-85
2021/12/09 11:15:49;;;;;;;20.20;14.10;;;4.90;99.90;;;;;;5058056;28;20236;-85
2021/12/09 11:18:38;;;;;;;16.80;12.40;;;5.00;99.90;;;;;;5056553;28;20213;-85
2021/12/09 11:21:29;;;;;;;19.03;12.83;;;5.00;99.90;;;;;;5057767;28;20205;-85
2021/12/09 11:24:08;;;;;;;17.27;12.97;;;5.00;99.90;;;;;;5057323;28;20174;-85
2021/12/09 11:29:16;;;;;;;17.87;13.50;;;5.10;99.90;;;;;;5058479;28;20224;-85
2021/12/09 11:31:50;;;;;;;19.77;12.70;;;5.10;99.90;;;;;;5056756;28;20205;-85
2021/12/09 11:34:21;;;;;;;17.07;12.13;;;5.20;99.90;;;;;;5056499;28;20170;-85
2021/12/09 11:36:53;;;;;;;17.73;12.13;;;5.30;99.90;;;;;;5056385;28;20210;-85
2021/12/09 11:39:27;;;;;;;16.17;12.47;;;5.50;99.90;;;;;;5055759;28;20173;-85
2021/12/09 11:42:03;;;;;;;15.87;11.90;;;5.60;99.90;;;;;;5056985;28;20168;-85
2021/12/09 11:44:28;;;;;;;15.70;11.17;;;5.60;99.90;;;;;;5056930;28;20216;-85
2021/12/09 11:46:54;;;;;;;16.17;11.20;;;5.60;99.90;;;;;;5056779;28;20202;-84
2021/12/09 11:49:20;;;;;;;16.23;12.77;;;5.60;99.90;;;;;;5057006;28;20205;-84
2021/12/09 11:51:45;;;;;;;34.83;26.77;;;5.60;99.90;;;;;;5057195;28;20175;-84
2021/12/09 11:54:11;;;;;;;22.23;17.20;;;5.70;99.90;;;;;;5057231;28;20703;-84
2021/12/09 12:06:34;;;;;;;23.50;15.43;;;5.50;99.90;;;;;;5058190;28;20208;-84
2021/12/09 12:11:29;;;;;;;29.07;19.87;;;5.40;99.90;;;;;;5058103;28;20165;-84
2021/12/09 12:17:03;;;;;;;19.90;13.63;;;5.40;99.90;;;;;;5056404;28;20191;-84
2021/12/09 12:19:55;;;;;;;19.57;14.67;;;5.40;99.90;;;;;;5056640;28;20188;-84
2021/12/09 12:23:19;;;;;;;17.47;11.60;;;5.40;99.90;;;;;;5054212;28;20166;-83
2021/12/09 12:25:43;;;;;;;15.40;11.37;;;5.30;99.90;;;;;;5053792;28;20240;-83
2021/12/09 12:34:50;;;;;;;18.47;12.50;;;5.30;99.90;;;;;;5055479;28;20232;-83
2021/12/09 12:37:10;;;;;;;14.13;10.63;;;5.30;99.90;;;;;;5053443;28;20284;-83
2021/12/09 12:40:00;;;;;;;17.90;12.00;;;5.20;99.90;;;;;;5053828;28;20178;-83
2021/12/09 12:42:49;;;;;;;15.97;10.63;;;5.10;99.90;;;;;;5054578;28;20238;-83
2021/12/09 12:48:10;;;;;;;12.10;9.10;;;4.90;99.90;;;;;;5055161;28;20166;-84
2021/12/09 12:50:36;;;;;;;15.60;8.93;;;4.80;99.90;;;;;;5053375;28;20170;-84
2021/12/09 12:53:31;;;;;;;16.03;10.37;;;4.80;99.90;;;;;;5054392;28;20184;-85
2021/12/09 12:56:19;;;;;;;12.37;8.30;;;4.70;99.90;;;;;;5054292;28;20202;-85
2021/12/09 12:59:05;;;;;;;8.30;6.47;;;4.70;99.90;;;;;;5053908;28;20274;-85
2021/12/09 13:01:31;;;;;;;10.73;6.90;;;4.60;99.90;;;;;;5055750;28;20162;-84
2021/12/09 13:04:05;;;;;;;9.37;6.13;;;4.60;99.90;;;;;;5053461;28;20174;-83
2021/12/09 13:06:53;;;;;;;11.13;6.30;;;4.50;99.90;;;;;;5054329;28;20271;-83
2021/12/09 13:09:32;;;;;;;9.40;6.30;;;4.40;99.90;;;;;;5053395;28;20237;-83
2021/12/09 13:12:06;;;;;;;9.03;6.70;;;4.40;99.90;;;;;;5053387;28;20257;-82
2021/12/09 13:14:35;;;;;;;8.13;5.97;;;4.30;99.90;;;;;;5053082;28;20174;-83
2021/12/09 13:19:42;;;;;;;8.63;5.67;;;4.20;99.90;;;;;;5055063;28;20158;-84
2021/12/09 13:22:11;;;;;;;8.87;5.80;;;4.10;99.90;;;;;;5054453;28;20170;-84